x

Sentry Shoal (46131) Wave Buoy

6:00 - Wed 3rd Jun 2015 All times are PDT. -7 hours from GMT.

  • Sig Wave height 0.3ft
  • Peak Period 2s
  • Wind
    9mph, 11mph gusts
  • Sea Temp 62°f
  • Ar Temp 57°f
  • Sea Pressure 1016.5mb
  • Sentry Shoal
  • Sentry Shoal

More Historic Weather Station data

Upgrade to MSW Pro to gain access to the past 30 days of data for over 8000 Wavebouys and Weather Stations around the globe.

Join Pro

Comparision Forecast

View Surf forecast
   
Qua 06/03 6:00 0.3ft 2s 9 11 mph 1016.5mb 62f 57f
5:00 0.3ft 2s 9 11 mph 1016.3mb 62f 58f
4:00 0.3ft 2s 7
mph
1016.4mb 60f 56f
3:00 0.3ft 2s 4
mph
1016.6mb 60f 57f
2:00 0.7ft 2s 2 4 mph 1016.6mb 60f 57f
1:00 1ft 2s 4 7 mph 1016.6mb 60f 57f
12:00 1ft 2s 9 13 mph 1016.5mb 61f 57f
Ter 06/02 11:00 1ft 2s 7 9 mph 1016.6mb 61f 56f
10:00 1ft 3s 2
mph
1016.6mb 61f 56f
9:00 1.3ft 3s 2 4 mph 1016.1mb 61f 56f
8:00 1.6ft 3s 9
mph
1015.8mb 61f 56f
7:00 2ft 3s 4 7 mph 1015.7mb 61f 56f
6:00 2ft 3s 11 13 mph 1015.5mb 61f 56f
5:00 2ft 3s 11 18 mph 1015.2mb 61f 57f
4:00 1.6ft 3s 13 16 mph 1015.3mb 61f 58f
3:00 1.3ft 3s 4
mph
1015.3mb 61f 56f
2:00 1.6ft 4s 4 7 mph 1015.2mb 61f 56f
1:00 1.6ft 3s 4
mph
1015mb 61f 55f
12:00 1.3ft 3s 7 9 mph 1014.5mb 61f 56f
11:00 2ft 4s 13 16 mph 1013.8mb 61f 57f
10:00 1.3ft 3s 16 20 mph 1013.2mb 61f 57f
9:00 1.6ft 3s 9 11 mph 1013.1mb 61f 57f
8:00 1.6ft 3s 16 18 mph 1012.8mb 60f 57f
7:00 1.6ft 3s 13 16 mph 1012.2mb 60f 56f
6:00 2ft 3s 16 20 mph 1011.6mb 60f 58f
5:00 2ft 4s 16 18 mph 1011.3mb 60f 59f
4:00 2.5ft 4s 13 16 mph 1011.2mb 60f 60f
3:00 2.5ft 4s 13 16 mph 1011.4mb 60f 59f
2:00 2.5ft 4s 13 16 mph 1011.5mb 60f 60f
1:00 2.5ft 4s 13 16 mph 1011.6mb 61f 60f
12:00 2.5ft 4s 18 22 mph 1011.5mb 61f 60f
Seg 06/01 11:00 2.5ft 4s 18 20 mph 1011.4mb 62f 61f
10:00 2.5ft 4s 16 20 mph 1011.4mb 62f 61f
9:00 3.5ft 5s 13 18 mph 1010.7mb 62f 62f
8:00 3ft 4s 16 18 mph 1010.5mb 63f 62f
7:00 3ft 4s 16 18 mph 1010.2mb 63f 63f
6:00 2.5ft 4s 18 20 mph 1010.1mb 63f 63f
5:00 1.6ft 3s 16 18 mph 1010mb 63f 64f
4:00 1ft 2s 16 18 mph 1010mb 63f 64f
3:00 0.3ft 2s 11 13 mph 1010mb 64f 64f
2:00  -  2s 9
mph
1010.3mb 64f 64f
1:00  -  2s 4
mph
1010.1mb 64f 63f
12:00 0.3ft 2s 4
mph
1010.2mb 63f 64f
11:00 0.3ft 2s 4
mph
1009.9mb 63f 63f
10:00 0.3ft 2s 7
mph
1010mb 63f 62f
9:00 0.7ft 2s 11
mph
1009.8mb 63f 61f
8:00 0.7ft 2s 11 13 mph 1009.5mb 63f 60f
7:00 0.3ft 2s 11 13 mph 1009.2mb 63f 60f
6:00 0.3ft 2s 11 13 mph 1008.9mb 63f 60f
5:00 0.3ft 2s 11 13 mph 1008.5mb 63f 61f
4:00 0.3ft 2s 7 9 mph 1008.7mb 63f 62f
3:00 0.3ft 2s 9 11 mph 1008.5mb 63f 62f
2:00 0.7ft 2s 11 13 mph 1008.7mb 64f 63f
1:00  -  4s 9
mph
1008.6mb 64f 63f
12:00 0.3ft 6s 2
mph
1008.5mb 64f 64f
Dom 05/31 11:00 0.3ft 7s 7 9 mph 1008.4mb 64f 65f
10:00 0.3ft 4s 4
mph
1008.5mb 65f 64f
9:00  -  3s 4
mph
1008.2mb 65f 64f
8:00  -  2s 4
mph
1008.4mb 65f 65f
7:00  -  2s 2 4 mph 1008.6mb 65f 65f
6:00  -  4s 2
mph
1009mb 66f 67f
5:00  -  3s 4 7 mph 1009.4mb 68f 66f
3:00  -  2s  -  mph 1010.7mb 63f 67f
2:00 0.3ft 2s  -  mph 1011.6mb 62f 66f
1:00 0.3ft 2s  -  2 mph 1012.1mb 63f 63f
12:00 0.3ft 2s  -  mph 1012.6mb 62f 62f
11:00 0.3ft 2s 4
mph
1013.1mb 62f 59f
10:00 0.3ft 2s 9
mph
1013.4mb 61f 58f
9:00 0.7ft 2s 11 13 mph 1013.2mb 62f 56f
8:00 0.7ft 2s 9 11 mph 1013.2mb 61f 55f
7:00 0.7ft 2s 11 13 mph 1013mb 60f 56f
6:00 0.7ft 2s 11 13 mph 1013mb 60f 56f
5:00 0.7ft 2s 11 13 mph 1012.6mb 60f 57f
4:00 0.7ft 2s 11 13 mph 1012.4mb 60f 58f
3:00 0.7ft 6s 11 13 mph 1012.5mb 60f 59f
2:00 0.7ft 2s 11 13 mph 1012.6mb 61f 60f
1:00 0.3ft 3s 11 13 mph 1012.8mb 63f 62f
12:00 0.3ft 2s 9 11 mph 1012.7mb 64f 62f
Sáb 05/30 11:00 0.3ft 7s 9
mph
1012.8mb 64f 64f
10:00 0.7ft 7s 7 9 mph 1012.4mb 63f 65f
9:00 0.3ft 2s 2 4 mph 1011.9mb 64f 64f
8:00 0.3ft 2s 4 7 mph 1011.6mb 64f 65f
7:00  -  2s 7 9 mph 1011.7mb 64f 65f
6:00 0.3ft 3s 7 9 mph 1011.9mb 64f 65f
5:00 0.3ft 3s 7
mph
1012.1mb 65f 64f
4:00 0.3ft 3s 4 7 mph 1012.6mb 65f 64f
3:00 0.3ft 3s 4 7 mph 1013mb 65f 63f